KHWO/HWO METAR and TAF weather

Enter ICAO airport designator
Station Type Date Time Source
KHWO METAR 2020/04/05 21:53 UTC NOAA

KHWO 052153Z 18008KT 10SM -RA SCT049 OVC065 27/18 A2994 RMK AO2 RAB41 SLP140 P0000 T02670183


Station Type Date Time Source
KHWO Decoded METAR 2020/04/05 21:53 UTC NOAA

HOLLYWOOD NORTH PERRY AIRPORT , FL, United States (KHWO) 26-00N 080-14W 2M
Apr 05, 2020 - 05:53 PM EDT / 2020.04.05 2153 UTC
Wind: from the S (180 degrees) at 9 MPH (8 KT):0
Visibility: 10 mile(s):0
Sky conditions: overcast
Weather: light rain
Precipitation last hour: A trace
Temperature: 80.1 F (26.7 C)
Dew Point: 64.9 F (18.3 C)
Relative Humidity: 60%
Pressure (altimeter): 29.94 in. Hg (1013 hPa)
ob: KHWO 052153Z 18008KT 10SM -RA SCT049 OVC065 27/18 A2994 RMK AO2 RAB41 SLP140 P0000 T02670183
cycle: 22

Station Type Date Time Source
KHWO TAF 2020/02/03 18:20 UTC NOAA

TAF KHWO 031720Z 0318/0418 12005KT P6SM SKC
FM040000 VRB03KT P6SM SKC
FM041500 14010KT P6SM FEW030

Example: see airport list